createdAt,value
2022-10-02T00:01:19.648Z,95989.63
2022-10-02T00:06:22.886Z,95986.16
2022-10-02T00:11:26.088Z,95986.13
2022-10-02T00:16:29.393Z,95999.56
2022-10-02T00:21:34.672Z,96002.53
2022-10-02T00:26:38.684Z,96032.94
2022-10-02T00:31:42.519Z,96027.53
2022-10-02T00:36:45.732Z,96035.59
2022-10-02T00:41:49.047Z,96041.50
2022-10-02T00:46:52.254Z,96057.63
2022-10-02T00:51:55.623Z,96056.56
2022-10-02T00:56:58.874Z,96050.91
2022-10-02T01:02:05.432Z,96053.59
2022-10-02T01:07:08.743Z,96033.16
2022-10-02T01:12:12.428Z,96042.31
2022-10-02T01:17:15.590Z,96038.56
2022-10-02T01:22:19.018Z,96061.41
2022-10-02T01:27:23.770Z,96067.34
2022-10-02T01:32:29.325Z,96068.13
2022-10-02T01:37:32.625Z,96062.50
2022-10-02T01:42:36.435Z,96063.00
2022-10-02T01:47:40.663Z,96049.56
2022-10-02T01:52:43.857Z,96038.28
2022-10-02T01:57:47.181Z,96033.97
2022-10-02T02:02:50.373Z,96024.81
2022-10-02T02:07:53.511Z,96033.16
2022-10-02T02:12:56.814Z,96041.50
2022-10-02T02:18:00.506Z,96046.06
2022-10-02T02:23:03.828Z,96052.78
2022-10-02T02:28:07.356Z,96049.03
2022-10-02T02:33:10.682Z,96052.00
2022-10-02T02:38:14.316Z,96031.31
2022-10-02T02:43:18.064Z,96043.13
2022-10-02T02:48:21.401Z,96050.66
2022-10-02T02:53:27.356Z,96048.50
2022-10-02T02:58:30.657Z,96044.22
2022-10-02T03:03:33.910Z,96031.28
2022-10-02T03:08:37.674Z,96044.75
2022-10-02T03:13:40.840Z,96061.16
2022-10-02T03:18:44.037Z,96055.22
2022-10-02T03:23:47.302Z,96053.09
2022-10-02T03:28:55.881Z,96059.28
2022-10-02T03:34:00.002Z,96042.88
2022-10-02T03:39:24.185Z,96046.34
2022-10-02T03:44:27.378Z,96054.16
2022-10-02T03:49:31.147Z,96050.13
2022-10-02T03:54:34.393Z,96044.75
2022-10-02T03:59:37.643Z,96039.38
2022-10-02T04:04:41.006Z,96044.75
2022-10-02T04:09:44.331Z,96036.69
2022-10-02T04:14:51.150Z,96037.75
2022-10-02T04:19:54.449Z,96039.38
2022-10-02T04:24:57.781Z,96040.44
2022-10-02T04:30:01.045Z,96033.19
2022-10-02T04:35:04.264Z,96034.53
2022-10-02T04:40:07.457Z,96036.94
2022-10-02T04:45:10.823Z,96033.97
2022-10-02T04:50:14.860Z,96035.63
2022-10-02T04:55:18.245Z,96032.66
2022-10-02T05:00:21.413Z,96041.53
2022-10-02T05:05:24.607Z,96025.13
2022-10-02T05:10:27.767Z,96026.72
2022-10-02T05:15:30.966Z,96033.19
2022-10-02T05:20:34.189Z,96046.66
2022-10-02T05:25:43.385Z,96042.34
2022-10-02T05:30:46.569Z,96049.59
2022-10-02T05:35:50.197Z,96036.69
2022-10-02T05:40:53.742Z,96040.47
2022-10-02T05:45:58.061Z,96038.31
2022-10-02T05:51:01.262Z,96035.91
2022-10-02T05:56:04.401Z,96032.66
2022-10-02T06:01:09.587Z,96041.00
2022-10-02T06:06:12.810Z,96045.31
2022-10-02T06:11:15.995Z,96048.78
2022-10-02T06:16:19.327Z,96059.00
2022-10-02T06:21:22.692Z,96056.88
2022-10-02T06:26:29.141Z,96052.81
2022-10-02T06:31:32.386Z,96056.03
2022-10-02T06:36:42.968Z,96062.78
2022-10-02T06:41:47.370Z,96067.38
2022-10-02T06:46:52.542Z,96071.66
2022-10-02T06:51:55.832Z,96074.09
2022-10-02T06:56:59.191Z,96072.75
2022-10-02T07:02:02.522Z,96071.66
2022-10-02T07:07:05.846Z,96078.13
2022-10-02T07:12:09.772Z,96073.78
2022-10-02T07:17:12.978Z,96063.81
2022-10-02T07:22:42.831Z,96078.59
2022-10-02T07:27:39.830Z,96072.41
2022-10-02T07:32:43.131Z,96067.25
2022-10-02T07:37:46.403Z,96075.91
2022-10-02T07:42:51.677Z,96069.41
2022-10-02T07:47:54.885Z,96059.13
2022-10-02T07:52:58.182Z,96055.31
2022-10-02T07:58:01.469Z,96052.03
2022-10-02T08:03:04.791Z,96050.56
2022-10-02T08:08:07.983Z,96052.66
2022-10-02T08:13:11.705Z,96046.94
2022-10-02T08:18:33.632Z,96041.28
2022-10-02T08:23:38.421Z,96038.50
2022-10-02T08:28:44.476Z,96032.72
2022-10-02T08:33:47.645Z,96036.56
2022-10-02T08:38:54.582Z,96033.94
2022-10-02T08:43:58.786Z,96012.16
2022-10-02T08:49:02.028Z,96019.75
2022-10-02T08:54:05.203Z,96016.84
2022-10-02T08:59:08.418Z,96003.44
2022-10-02T09:04:13.072Z,96001.16
2022-10-02T09:09:16.262Z,95995.44
2022-10-02T09:14:19.460Z,95983.94
2022-10-02T09:19:22.633Z,95967.19
2022-10-02T09:24:25.841Z,95967.09
2022-10-02T09:29:30.649Z,95967.03
2022-10-02T09:34:33.811Z,95956.28
2022-10-02T09:39:36.972Z,95939.56
2022-10-02T09:44:40.232Z,95930.91
2022-10-02T09:49:43.473Z,95927.09
2022-10-02T09:54:47.813Z,95913.34
2022-10-02T09:59:51.521Z,95922.59
2022-10-02T10:05:05.619Z,95913.09
2022-10-02T10:10:09.622Z,95907.09
2022-10-02T10:15:12.936Z,95902.81
2022-10-02T10:20:17.160Z,95893.72
2022-10-02T10:25:21.053Z,95892.88
2022-10-02T10:30:32.598Z,95881.19
2022-10-02T10:35:36.119Z,95874.72
2022-10-02T10:40:39.577Z,95858.66
2022-10-02T10:45:42.886Z,95861.38
2022-10-02T10:50:52.348Z,95862.00
2022-10-02T10:55:59.068Z,95847.41
2022-10-02T11:01:02.447Z,95832.16
2022-10-02T11:06:05.748Z,95835.06
2022-10-02T11:11:09.107Z,95820.59
2022-10-02T11:16:13.325Z,95820.97
2022-10-02T11:21:16.774Z,95824.09
2022-10-02T11:26:21.294Z,95824.69
2022-10-02T11:31:25.014Z,95810.84
2022-10-02T11:36:29.108Z,95787.00
2022-10-02T11:41:32.834Z,95769.00
2022-10-02T11:46:36.695Z,95770.72
2022-10-02T11:51:43.942Z,95755.50
2022-10-02T11:56:47.236Z,95753.63
2022-10-02T12:01:52.420Z,95749.81
2022-10-02T12:06:55.785Z,95750.31
2022-10-02T12:11:59.280Z,95754.25
2022-10-02T12:17:02.160Z,95751.94
2022-10-02T12:22:22.422Z,95735.28
2022-10-02T12:27:25.442Z,95724.59
2022-10-02T12:32:28.573Z,95710.97
2022-10-02T12:37:31.660Z,95705.09
2022-10-02T12:42:34.376Z,95696.66
2022-10-02T12:47:37.188Z,95690.50
2022-10-02T12:52:40.555Z,95706.63
2022-10-02T12:57:56.189Z,95697.63
2022-10-02T13:03:01.831Z,95696.41
2022-10-02T13:08:07.122Z,95685.41
2022-10-02T13:13:10.233Z,95695.88
2022-10-02T13:18:13.710Z,95763.94
2022-10-02T13:23:16.784Z,95794.53
2022-10-02T13:28:20.822Z,95828.81
2022-10-02T13:33:23.814Z,95838.53
2022-10-02T13:38:26.710Z,95807.78
2022-10-02T13:43:29.519Z,95819.66
2022-10-02T13:48:32.524Z,95838.25
2022-10-02T13:53:35.341Z,95869.59
2022-10-02T13:58:38.150Z,95862.88
2022-10-02T14:03:41.007Z,95863.97
2022-10-02T14:08:43.842Z,95870.06
2022-10-02T14:13:46.649Z,95895.19
2022-10-02T14:18:49.318Z,95887.94
2022-10-02T14:23:51.998Z,95870.47
2022-10-02T14:28:54.740Z,95867.56
2022-10-02T14:33:57.699Z,95860.81
2022-10-02T14:39:00.416Z,95874.56
2022-10-02T14:44:03.169Z,95895.53
2022-10-02T14:49:06.014Z,95922.00
2022-10-02T14:54:09.126Z,95882.66
2022-10-02T14:59:11.925Z,95871.84
2022-10-02T15:04:16.844Z,95857.63
2022-10-02T15:09:19.614Z,95881.06
2022-10-02T15:14:22.284Z,95906.47
2022-10-02T15:19:25.014Z,95894.63
2022-10-02T15:24:27.729Z,95897.06
2022-10-02T15:29:30.413Z,95889.22
2022-10-02T15:34:33.082Z,95887.91
2022-10-02T15:39:36.844Z,95887.06
2022-10-02T15:44:39.699Z,95897.81
2022-10-02T15:49:42.669Z,95898.38
2022-10-02T15:54:46.141Z,95906.38
2022-10-02T15:59:48.958Z,95917.66
2022-10-02T16:04:51.814Z,95931.66
2022-10-02T16:09:54.634Z,95947.78
2022-10-02T16:14:57.485Z,95959.41
2022-10-02T16:20:02.643Z,95950.50
2022-10-02T16:25:06.633Z,95957.00
2022-10-02T16:30:11.907Z,95949.72
2022-10-02T16:35:16.504Z,95957.25
2022-10-02T16:40:20.007Z,95950.00
2022-10-02T16:45:23.852Z,95950.81
2022-10-02T16:50:26.755Z,95964.81
2022-10-02T16:55:29.658Z,95953.78
2022-10-02T17:00:42.158Z,95955.41
2022-10-02T17:05:46.051Z,95957.81
2022-10-02T17:10:48.906Z,95962.38
2022-10-02T17:15:51.847Z,95951.63
2022-10-02T17:21:02.098Z,95982.28
2022-10-02T17:26:04.897Z,95993.59
2022-10-02T17:31:07.719Z,96011.66
2022-10-02T17:36:12.546Z,96018.91
2022-10-02T17:41:15.217Z,96013.53
2022-10-02T17:46:17.934Z,96033.16
2022-10-02T17:51:50.784Z,96020.53
2022-10-02T17:56:44.114Z,96047.72
2022-10-02T18:01:46.864Z,96073.81
2022-10-02T18:06:49.734Z,96084.03
2022-10-02T18:11:53.462Z,96077.56
2022-10-02T18:17:05.156Z,96081.06
2022-10-02T18:22:10.476Z,96090.50
2022-10-02T18:27:14.029Z,96091.03
2022-10-02T18:32:16.950Z,96103.97
2022-10-02T18:37:20.398Z,96104.47
2022-10-02T18:42:23.204Z,96089.13
2022-10-02T18:47:26.476Z,96065.72
2022-10-02T18:52:29.347Z,96085.66
2022-10-02T18:57:32.901Z,96083.50
2022-10-02T19:02:35.726Z,96091.84
2022-10-02T19:07:39.531Z,96085.66
2022-10-02T19:12:42.383Z,96084.56
2022-10-02T19:17:45.081Z,96093.44
2022-10-02T19:22:50.187Z,96102.31
2022-10-02T19:27:54.695Z,96114.69
2022-10-02T19:32:57.490Z,96114.44
2022-10-02T19:38:03.093Z,96119.53
2022-10-02T19:43:06.335Z,96134.88
2022-10-02T19:48:09.198Z,96143.22
2022-10-02T19:53:11.850Z,96143.75
2022-10-02T19:58:14.725Z,96135.66
2022-10-02T20:03:17.537Z,96140.78
2022-10-02T20:08:20.865Z,96148.56
2022-10-02T20:13:23.720Z,96166.25
2022-10-02T20:18:26.688Z,96178.88
2022-10-02T20:23:29.550Z,96190.44
2022-10-02T20:28:32.574Z,96170.78
2022-10-02T20:33:35.330Z,96171.03
2022-10-02T20:38:38.546Z,96158.66
2022-10-02T20:43:41.371Z,96170.50
2022-10-02T20:49:07.141Z,96184.47
2022-10-02T20:54:07.411Z,96200.59
2022-10-02T20:59:12.251Z,96203.81
2022-10-02T21:04:16.280Z,96208.66
2022-10-02T21:09:19.185Z,96208.91
2022-10-02T21:14:22.883Z,96212.66
2022-10-02T21:19:26.049Z,96221.25
2022-10-02T21:24:28.969Z,96216.66
2022-10-02T21:29:32.367Z,96225.25
2022-10-02T21:34:35.297Z,96227.41
2022-10-02T21:39:38.142Z,96232.25
2022-10-02T21:44:41.440Z,96244.63
2022-10-02T21:49:44.467Z,96252.97
2022-10-02T21:54:55.881Z,96262.91
2022-10-02T21:59:58.681Z,96254.91
2022-10-02T22:05:01.651Z,96262.38
2022-10-02T22:10:04.998Z,96276.94
2022-10-02T22:15:07.786Z,96280.19
2022-10-02T22:20:10.436Z,96291.44
2022-10-02T22:25:13.374Z,96288.50
2022-10-02T22:30:16.566Z,96296.31
2022-10-02T22:35:20.114Z,96294.72
2022-10-02T22:40:23.348Z,96296.81
2022-10-02T22:45:26.322Z,96298.97
2022-10-02T22:50:29.151Z,96315.13
2022-10-02T22:55:33.934Z,96308.69
2022-10-02T23:00:36.725Z,96322.41
2022-10-02T23:05:39.817Z,96319.66
2022-10-02T23:10:44.058Z,96331.72
2022-10-02T23:15:46.972Z,96333.34
2022-10-02T23:20:50.340Z,96336.56
2022-10-02T23:25:53.135Z,96341.31
2022-10-02T23:30:56.118Z,96337.44
2022-10-02T23:35:58.965Z,96344.13
2022-10-02T23:41:19.439Z,96352.34
2022-10-02T23:46:22.391Z,96354.19
2022-10-02T23:51:25.713Z,96346.25
2022-10-02T23:56:28.565Z,96357.88
